Time;durP1;ratioP1;P1;durP2;ratioP2;P2;SDS_P1;SDS_P2;PMS_P1;PMS_P2;Temp;Humidity;BMP_temperature;BMP_pressure;BME280_temperature;BME280_humidity;BME280_pressure;Samples;Min_cycle;Max_cycle;Signal;HPM_P1;HPM_P2
2022/04/27 00:00:28;;;;;;;10.48;3.40;;;;;;;18.10;43.34;102537.56;5071581;28;20036;-76
2022/04/27 00:02:55;;;;;;;8.23;3.83;;;;;;;17.96;43.44;102537.66;5072939;28;20024;-76
2022/04/27 00:05:21;;;;;;;7.50;3.03;;;;;;;17.90;43.56;102544.47;5073157;28;20024;-76
2022/04/27 00:07:47;;;;;;;9.55;3.00;;;;;;;17.91;43.37;102545.28;5072880;28;20039;-75
2022/04/27 00:10:13;;;;;;;9.15;3.20;;;;;;;17.73;43.57;102538.88;5072875;28;20099;-75
2022/04/27 00:12:38;;;;;;;7.03;3.00;;;;;;;17.73;43.50;102545.22;5072666;28;20394;-76
2022/04/27 00:15:05;;;;;;;11.23;3.30;;;;;;;17.77;43.37;102544.59;5072782;28;20040;-76
2022/04/27 00:17:31;;;;;;;10.18;3.63;;;;;;;17.79;43.58;102545.06;5072858;28;20475;-76
2022/04/27 00:19:57;;;;;;;11.55;3.25;;;;;;;17.80;43.60;102547.50;5074030;28;20032;-76
2022/04/27 00:22:23;;;;;;;10.57;3.42;;;;;;;17.87;43.91;102549.81;5072769;28;20040;-76
2022/04/27 00:24:48;;;;;;;6.05;2.97;;;;;;;18.00;43.80;102551.69;5072745;28;20028;-75
2022/04/27 00:27:15;;;;;;;9.32;3.42;;;;;;;18.07;43.68;102551.22;5072546;28;20081;-75
2022/04/27 00:29:40;;;;;;;8.27;3.55;;;;;;;17.93;44.08;102557.66;5072660;28;20028;-75
2022/04/27 00:32:06;;;;;;;5.65;2.85;;;;;;;17.94;44.33;102558.47;5072909;28;20043;-76
2022/04/27 00:34:32;;;;;;;12.45;3.78;;;;;;;18.03;44.18;102556.56;5072944;28;20422;-76
2022/04/27 00:36:57;;;;;;;9.88;2.75;;;;;;;18.23;43.60;102549.63;5072392;28;20055;-75
2022/04/27 00:39:23;;;;;;;13.75;3.17;;;;;;;18.28;43.52;102547.50;5071782;28;20029;-76
2022/04/27 00:42:06;;;;;;;12.10;3.28;;;;;;;18.29;43.45;102540.88;5072277;28;20031;-76
2022/04/27 00:44:32;;;;;;;9.23;4.00;;;;;;;18.17;43.78;102550.91;5072522;28;20111;-76
2022/04/27 00:46:59;;;;;;;9.43;2.80;;;;;;;18.33;43.31;102554.88;5072304;28;20178;-76
2022/04/27 00:49:26;;;;;;;11.88;4.13;;;;;;;18.38;42.99;102548.38;5072358;28;20090;-75
2022/04/27 00:51:52;;;;;;;7.95;3.22;;;;;;;18.38;42.82;102553.91;5071966;28;20103;-76
2022/04/27 00:54:22;;;;;;;6.00;2.80;;;;;;;18.29;42.92;102551.94;5072697;28;20175;-75
2022/04/27 00:56:48;;;;;;;6.25;2.92;;;;;;;18.24;42.82;102560.38;5072427;28;20059;-75
2022/04/27 00:59:15;;;;;;;5.57;2.92;;;;;;;18.17;42.85;102557.25;5072307;28;20485;-75
2022/04/27 01:01:41;;;;;;;9.18;3.75;;;;;;;18.14;42.57;102555.16;5072337;28;20048;-76
2022/04/27 01:04:07;;;;;;;9.68;3.65;;;;;;;18.11;42.89;102555.78;5072608;28;20113;-76
2022/04/27 01:06:38;;;;;;;8.27;3.72;;;;;;;18.11;42.79;102549.44;5072684;28;20036;-76
2022/04/27 01:09:04;;;;;;;8.25;3.30;;;;;;;18.05;42.91;102547.94;5072000;28;20082;-76
2022/04/27 01:11:31;;;;;;;8.60;3.15;;;;;;;17.96;43.22;102543.19;5072470;28;20103;-76
2022/04/27 01:13:57;;;;;;;6.28;2.75;;;;;;;17.95;43.39;102538.78;5072984;28;20382;-76
2022/04/27 01:16:23;;;;;;;7.95;3.38;;;;;;;18.05;43.20;102540.44;5072399;28;20032;-75
2022/04/27 01:18:50;;;;;;;11.00;4.45;;;;;;;18.03;43.01;102539.97;5072174;28;20060;-75
2022/04/27 01:21:16;;;;;;;12.23;3.67;;;;;;;18.03;43.07;102545.50;5072217;28;20047;-75
2022/04/27 01:23:42;;;;;;;13.90;3.33;;;;;;;18.08;43.11;102544.56;5072084;28;20039;-76
2022/04/27 01:26:08;;;;;;;5.57;3.15;;;;;;;18.13;42.77;102544.38;5073028;28;20024;-76
2022/04/27 01:28:36;;;;;;;8.07;3.15;;;;;;;18.09;43.02;102549.75;5071869;28;20765;-75
2022/04/27 01:31:06;;;;;;;8.30;3.50;;;;;;;18.08;43.00;102552.84;5070742;28;20040;-75
2022/04/27 01:33:35;;;;;;;12.55;3.40;;;;;;;17.97;43.25;102544.00;5072004;28;20033;-75
2022/04/27 01:36:07;;;;;;;7.90;3.17;;;;;;;17.93;43.38;102548.56;5070734;28;20068;-76
2022/04/27 01:38:37;;;;;;;8.90;3.40;;;;;;;17.93;43.25;102549.38;5072114;28;20121;-76
2022/04/27 01:41:03;;;;;;;11.73;3.65;;;;;;;17.92;43.15;102546.94;5070524;28;20025;-76
2022/04/27 01:43:29;;;;;;;17.02;5.05;;;;;;;17.83;43.39;102546.06;5070305;28;20445;-75
2022/04/27 01:45:56;;;;;;;11.63;3.72;;;;;;;17.85;43.29;102552.09;5070685;28;20036;-76
2022/04/27 01:48:22;;;;;;;8.73;3.42;;;;;;;17.85;43.10;102561.22;5071576;28;20044;-76
2022/04/27 01:50:48;;;;;;;10.45;3.63;;;;;;;17.82;43.16;102558.25;5070557;28;20107;-75
2022/04/27 01:55:58;;;;;;;10.35;3.95;;;;;;;17.74;43.17;102562.59;5074181;28;20090;-76
2022/04/27 01:58:24;;;;;;;8.70;4.22;;;;;;;17.72;43.21;102562.94;5075335;28;20433;-75
2022/04/27 02:00:51;;;;;;;9.00;4.18;;;;;;;17.72;43.49;102560.16;5073860;28;20036;-76
2022/04/27 02:03:18;;;;;;;8.32;4.18;;;;;;;17.74;43.59;102563.41;5064229;28;20032;-76
2022/04/27 02:05:45;;;;;;;9.38;5.00;;;;;;;17.78;43.80;102574.69;5069565;28;20035;-76
2022/04/27 02:08:11;;;;;;;13.60;5.68;;;;;;;17.77;44.02;102575.81;5075055;28;20463;-76
2022/04/27 02:10:37;;;;;;;13.98;4.93;;;;;;;17.89;43.69;102573.25;5075092;28;20029;-76
2022/04/27 02:13:04;;;;;;;9.82;4.68;;;;;;;17.88;43.60;102574.38;5074989;28;20390;-76
2022/04/27 02:15:30;;;;;;;14.45;5.03;;;;;;;17.93;43.51;102570.69;5075054;28;20089;-76
2022/04/27 02:17:56;;;;;;;11.93;5.38;;;;;;;18.04;43.35;102574.78;5074717;28;20029;-76
2022/04/27 02:20:23;;;;;;;13.98;4.90;;;;;;;18.05;43.45;102575.59;5075078;28;20029;-76
2022/04/27 02:22:48;;;;;;;11.63;5.85;;;;;;;18.00;43.43;102573.81;5074589;28;20054;-76
2022/04/27 02:25:14;;;;;;;14.38;6.18;;;;;;;17.93;43.72;102579.78;5074807;28;20024;-75
2022/04/27 02:27:40;;;;;;;17.58;6.40;;;;;;;18.06;43.59;102580.84;5075033;28;20560;-75
2022/04/27 02:30:07;;;;;;;15.57;6.30;;;;;;;18.13;43.32;102575.63;5074933;28;20025;-76
2022/04/27 02:32:32;;;;;;;18.73;6.85;;;;;;;18.07;43.45;102581.66;5074660;28;20028;-75
2022/04/27 02:34:58;;;;;;;12.85;6.30;;;;;;;18.06;43.45;102580.00;5074844;28;20036;-76
2022/04/27 02:37:24;;;;;;;16.90;5.93;;;;;;;18.05;43.51;102587.47;5074490;28;20033;-76
2022/04/27 02:39:49;;;;;;;24.50;7.50;;;;;;;17.92;44.09;102580.13;5074682;28;20035;-76
2022/04/27 02:42:16;;;;;;;12.73;5.88;;;;;;;18.08;43.79;102583.28;5075352;28;20033;-75
2022/04/27 02:44:41;;;;;;;12.23;5.97;;;;;;;18.14;43.60;102585.59;5075969;28;20029;-75
2022/04/27 02:47:07;;;;;;;13.38;5.97;;;;;;;18.12;43.98;102582.28;5072978;28;20036;-76
2022/04/27 02:52:16;;;;;;;15.27;6.18;;;;;;;18.09;44.05;102584.91;5075300;28;20090;-76
2022/04/27 02:54:42;;;;;;;15.95;6.43;;;;;;;18.15;43.90;102589.97;5074673;28;20029;-76
2022/04/27 02:57:08;;;;;;;15.43;7.15;;;;;;;18.04;44.27;102588.63;5073998;28;20025;-76
2022/04/27 02:59:34;;;;;;;20.48;7.28;;;;;;;18.15;44.06;102594.69;5074308;28;20025;-75
2022/04/27 03:02:00;;;;;;;13.98;7.05;;;;;;;18.20;43.94;102592.56;5072965;28;20543;-75
2022/04/27 03:04:26;;;;;;;13.05;6.75;;;;;;;18.14;44.07;102599.41;5074600;28;20028;-76
2022/04/27 03:06:51;;;;;;;17.50;7.20;;;;;;;18.15;44.13;102592.75;5073851;28;20073;-76
2022/04/27 03:09:17;;;;;;;19.10;8.27;;;;;;;18.13;43.97;102595.00;5074123;28;20029;-75
2022/04/27 03:11:43;;;;;;;15.00;7.38;;;;;;;18.03;44.03;102595.28;5074228;28;20020;-75
2022/04/27 03:14:09;;;;;;;15.70;7.47;;;;;;;18.00;44.19;102596.75;5072791;28;20475;-76
2022/04/27 03:16:35;;;;;;;18.65;8.38;;;;;;;17.72;45.27;102595.28;5073766;28;20063;-75
2022/04/27 03:19:01;;;;;;;11.73;7.95;;;;;;;17.95;44.42;102596.06;5073783;28;20028;-75
2022/04/27 03:21:29;;;;;;;15.35;8.07;;;;;;;17.92;44.61;102600.28;5074669;28;20025;-76
2022/04/27 03:23:55;;;;;;;17.00;9.35;;;;;;;17.86;44.85;102596.03;5073799;28;20031;-76
2022/04/27 03:26:22;;;;;;;21.75;10.10;;;;;;;17.97;44.72;102591.03;5073724;28;20028;-76
2022/04/27 03:28:47;;;;;;;19.50;9.45;;;;;;;18.06;44.28;102593.81;5073526;28;20048;-76
2022/04/27 03:31:13;;;;;;;26.15;10.57;;;;;;;17.84;44.77;102589.19;5073642;28;20031;-76
2022/04/27 03:33:39;;;;;;;20.88;11.15;;;;;;;17.93;44.76;102590.84;5073901;28;20074;-76
2022/04/27 03:36:08;;;;;;;17.20;9.80;;;;;;;17.93;44.42;102593.63;5074674;28;20475;-75
2022/04/27 03:38:34;;;;;;;18.95;9.82;;;;;;;17.88;44.43;102593.75;5074223;28;20052;-76
2022/04/27 03:41:00;;;;;;;15.55;9.60;;;;;;;17.92;44.24;102594.75;5073323;28;20025;-75
2022/04/27 03:43:25;;;;;;;17.52;8.38;;;;;;;17.99;44.01;102588.78;5073943;28;20025;-76
2022/04/27 03:45:51;;;;;;;23.52;12.40;;;;;;;17.97;44.16;102593.78;5073420;28;20458;-75
2022/04/27 03:48:17;;;;;;;19.70;10.55;;;;;;;17.90;44.38;102590.66;5073007;28;20106;-75
2022/04/27 03:50:43;;;;;;;19.08;10.32;;;;;;;17.86;44.68;102589.69;5073349;28;20029;-76
2022/04/27 03:53:09;;;;;;;20.30;12.07;;;;;;;17.77;45.11;102597.13;5073207;28;20078;-76
2022/04/27 03:55:35;;;;;;;20.95;10.15;;;;;;;17.76;45.05;102599.06;5073279;28;20025;-76
2022/04/27 03:58:04;;;;;;;16.52;11.32;;;;;;;17.82;45.07;102600.53;5073175;28;20032;-75
2022/04/27 04:00:30;;;;;;;22.08;11.25;;;;;;;17.89;44.81;102605.63;5072878;28;20020;-76
2022/04/27 04:03:01;;;;;;;16.27;9.68;;;;;;;17.91;44.74;102597.81;5073000;28;20028;-76
2022/04/27 04:05:27;;;;;;;19.50;9.60;;;;;;;18.00;44.70;102607.81;5072819;28;20017;-75
2022/04/27 04:07:53;;;;;;;22.45;12.20;;;;;;;18.08;44.61;102600.69;5072959;28;20043;-75
2022/04/27 04:10:18;;;;;;;20.67;10.65;;;;;;;17.95;44.81;102598.81;5072908;28;20071;-76
2022/04/27 04:12:47;;;;;;;32.30;11.75;;;;;;;17.97;44.96;102596.56;5072896;28;20021;-75
2022/04/27 04:15:13;;;;;;;19.25;10.55;;;;;;;17.97;44.75;102596.56;5072121;28;20028;-75
2022/04/27 04:17:45;;;;;;;20.05;9.77;;;;;;;17.92;45.07;102599.47;5072901;28;20513;-76
2022/04/27 04:20:13;;;;;;;20.92;10.48;;;;;;;17.98;44.74;102601.75;5072591;28;20095;-75
2022/04/27 04:22:39;;;;;;;18.77;9.80;;;;;;;17.98;44.88;102599.00;5072850;28;20035;-75
2022/04/27 04:30:35;;;;;;;25.83;11.13;;;;;;;18.21;43.95;102608.06;5072658;28;20039;-76
2022/04/27 04:33:00;;;;;;;18.73;11.27;;;;;;;17.90;44.63;102612.78;5072628;28;20024;-76
2022/04/27 04:35:26;;;;;;;19.50;11.23;;;;;;;17.92;44.85;102616.06;5072587;28;20082;-75
2022/04/27 04:37:52;;;;;;;21.95;11.02;;;;;;;17.97;44.57;102616.72;5072630;28;20104;-76
2022/04/27 04:40:17;;;;;;;18.90;10.30;;;;;;;17.94;44.69;102613.78;5072407;28;20021;-75
2022/04/27 04:42:43;;;;;;;17.77;10.18;;;;;;;17.94;44.96;102622.09;5072495;28;20041;-76
2022/04/27 04:45:09;;;;;;;21.35;11.38;;;;;;;17.90;45.10;102612.78;5072286;28;20032;-76
2022/04/27 04:47:34;;;;;;;30.35;10.45;;;;;;;17.84;44.90;102614.88;5071273;28;20032;-75
2022/04/27 04:50:00;;;;;;;25.10;11.05;;;;;;;17.86;45.20;102609.84;5072279;28;20040;-76
2022/04/27 04:52:27;;;;;;;33.03;11.43;;;;;;;17.90;44.93;102618.31;5072847;28;20489;-76
2022/04/27 04:54:52;;;;;;;21.15;11.32;;;;;;;17.93;45.11;102612.97;5072619;28;20386;-77
2022/04/27 04:57:18;;;;;;;18.30;10.60;;;;;;;17.92;44.92;102610.53;5071976;28;20040;-76
2022/04/27 04:59:44;;;;;;;24.85;12.07;;;;;;;17.95;44.84;102615.41;5072598;28;20021;-75
2022/04/27 05:02:10;;;;;;;23.63;12.38;;;;;;;17.75;45.32;102614.00;5072542;28;20024;-75
2022/04/27 05:04:35;;;;;;;29.08;14.23;;;;;;;17.69;45.38;102632.66;5072349;28;20025;-75
2022/04/27 05:07:01;;;;;;;23.95;12.07;;;;;;;17.87;45.19;102616.19;5072029;28;20023;-76
2022/04/27 05:09:26;;;;;;;23.00;13.75;;;;;;;17.90;45.01;102612.78;5073797;28;20021;-76
2022/04/27 05:11:52;;;;;;;25.10;14.98;;;;;;;17.71;45.37;102618.53;5072162;28;20523;-75
2022/04/27 05:14:17;;;;;;;27.33;15.65;;;;;;;17.69;45.51;102620.78;5072241;28;20024;-75
2022/04/27 05:16:43;;;;;;;27.77;14.63;;;;;;;17.70;45.50;102625.19;5072319;28;20036;-75
2022/04/27 05:19:09;;;;;;;27.58;17.52;;;;;;;17.69;45.36;102623.56;5071924;28;20376;-75
2022/04/27 05:21:34;;;;;;;27.35;15.98;;;;;;;17.82;45.10;102617.13;5072890;28;20025;-75
2022/04/27 05:24:00;;;;;;;23.83;13.77;;;;;;;17.99;44.79;102621.97;5071824;28;20078;-75
2022/04/27 05:26:26;;;;;;;26.30;14.85;;;;;;;17.92;45.27;102622.41;5074157;28;20487;-75
2022/04/27 05:34:20;;;;;;;26.25;13.10;;;;;;;17.84;45.22;102637.00;5076258;28;20032;-76
2022/04/27 05:36:45;;;;;;;21.80;13.55;;;;;;;17.78;45.84;102637.44;5076232;28;20399;-75
2022/04/27 05:39:11;;;;;;;20.73;13.48;;;;;;;17.96;45.19;102634.47;5075604;28;20103;-76
2022/04/27 05:41:36;;;;;;;22.13;13.00;;;;;;;17.97;45.26;102640.81;5075638;28;20021;-75
2022/04/27 05:44:09;;;;;;;22.90;11.85;;;;;;;17.93;45.52;102645.34;5075473;28;20104;-75
2022/04/27 05:46:37;;;;;;;22.17;13.55;;;;;;;18.15;44.71;102650.03;5075629;28;20020;-76
2022/04/27 05:49:03;;;;;;;23.17;12.07;;;;;;;18.29;44.54;102650.75;5075731;28;20049;-76
2022/04/27 05:51:29;;;;;;;21.00;12.85;;;;;;;18.12;45.07;102654.22;5075800;28;20036;-76
2022/04/27 05:53:55;;;;;;;18.85;10.75;;;;;;;18.13;44.97;102655.03;5075609;28;20025;-75
2022/04/27 05:56:20;;;;;;;19.88;12.50;;;;;;;18.13;45.19;102655.84;5074419;28;20032;-76
2022/04/27 05:58:47;;;;;;;26.73;13.13;;;;;;;18.08;44.87;102661.53;5075547;28;20115;-76
2022/04/27 06:01:13;;;;;;;20.10;12.07;;;;;;;18.24;44.92;102665.53;5090934;28;20067;-76
2022/04/27 06:03:39;;;;;;;17.77;11.50;;;;;;;18.44;44.34;102660.53;5075391;28;20052;-75
2022/04/27 06:06:04;;;;;;;19.95;11.70;;;;;;;18.35;44.59;102668.00;5075466;28;20024;-76
2022/04/27 06:08:30;;;;;;;27.30;12.10;;;;;;;18.47;44.46;102673.75;5075283;28;20460;-75
2022/04/27 06:10:55;;;;;;;23.25;12.48;;;;;;;18.52;44.30;102673.63;5075218;28;20028;-75
2022/04/27 06:13:21;;;;;;;21.98;11.77;;;;;;;18.68;43.82;102672.06;5075553;28;20059;-75
2022/04/27 06:15:47;;;;;;;21.23;12.07;;;;;;;18.69;43.71;102683.97;5077155;28;20434;-89
2022/04/27 06:18:12;;;;;;;16.80;11.52;;;;;;;18.63;43.82;102680.47;5113479;28;20105;-76
2022/04/27 06:20:38;;;;;;;15.90;11.32;;;;;;;18.72;43.53;102675.81;5091375;28;20473;-76
2022/04/27 06:23:04;;;;;;;22.58;11.05;;;;;;;18.84;42.87;102680.75;5078349;28;20020;-76
2022/04/27 06:25:32;;;;;;;18.02;11.05;;;;;;;18.91;43.02;102689.41;5062565;28;20036;-76
2022/04/27 06:27:57;;;;;;;18.85;11.23;;;;;;;18.91;43.16;102686.63;5074783;28;20036;-76
2022/04/27 06:30:25;;;;;;;23.23;11.00;;;;;;;19.02;42.65;102687.94;5075307;28;20066;-76
2022/04/27 06:32:51;;;;;;;19.35;11.13;;;;;;;19.05;42.78;102694.81;5076513;28;20044;-76
2022/04/27 06:35:16;;;;;;;18.95;10.88;;;;;;;19.13;42.46;102703.13;5067768;28;20453;-75
2022/04/27 06:37:42;;;;;;;14.32;9.90;;;;;;;19.41;41.70;102692.53;5071987;28;20120;-76
2022/04/27 06:40:09;;;;;;;17.98;10.00;;;;;;;19.57;41.59;102694.84;5075675;28;20025;-76
2022/04/27 06:42:35;;;;;;;18.27;9.10;;;;;;;19.42;41.90;102696.13;5080297;28;20025;-88
2022/04/27 06:45:04;;;;;;;19.65;10.82;;;;;;;19.39;42.03;102707.88;5078582;28;20021;-76
2022/04/27 06:47:30;;;;;;;18.67;10.02;;;;;;;19.56;41.78;102699.53;5074881;28;20024;-76
2022/04/27 06:49:56;;;;;;;23.15;9.80;;;;;;;19.62;41.88;102694.69;5074643;28;20439;-77
2022/04/27 06:52:22;;;;;;;16.65;10.50;;;;;;;19.62;41.52;102705.78;5075102;28;20032;-85
2022/04/27 06:54:48;;;;;;;16.83;10.20;;;;;;;19.74;41.32;102710.69;5073296;28;20483;-76
2022/04/27 06:57:13;;;;;;;21.20;9.68;;;;;;;19.76;41.46;102694.50;5074449;28;20069;-76
2022/04/27 06:59:39;;;;;;;21.35;9.65;;;;;;;19.77;41.50;102715.56;5073965;28;20024;-92
2022/04/27 07:02:05;;;;;;;16.45;10.20;;;;;;;19.76;41.13;102711.97;5074422;28;20028;-90
2022/04/27 07:04:35;;;;;;;21.63;10.75;;;;;;;19.77;41.18;102721.91;5075433;28;20074;-76
2022/04/27 07:07:01;;;;;;;19.98;10.60;;;;;;;19.84;41.20;102724.19;5075200;28;20020;-77
2022/04/27 07:09:27;;;;;;;19.63;10.48;;;;;;;19.78;41.42;102729.09;5074837;28;20028;-76
2022/04/27 07:11:53;;;;;;;15.90;9.18;;;;;;;19.82;41.45;102726.50;5074929;28;20032;-84
2022/04/27 07:14:19;;;;;;;24.83;11.00;;;;;;;19.70;42.09;102724.38;5074341;28;20047;-77
2022/04/27 07:16:45;;;;;;;19.45;9.93;;;;;;;19.65;41.85;102724.56;5074380;28;20475;-77
2022/04/27 07:19:12;;;;;;;19.50;11.02;;;;;;;19.76;41.63;102728.63;5073702;28;20032;-76
2022/04/27 07:21:38;;;;;;;15.27;8.93;;;;;;;19.64;42.03;102734.00;5072537;28;20111;-76
2022/04/27 07:24:04;;;;;;;26.83;11.52;;;;;;;19.80;41.59;102735.16;5072685;28;20471;-87
2022/04/27 07:26:30;;;;;;;20.05;9.95;;;;;;;20.03;41.44;102732.19;5074445;28;20017;-78
2022/04/27 07:28:57;;;;;;;21.55;11.80;;;;;;;20.03;41.37;102744.09;5074574;28;20029;-95
2022/04/27 07:31:23;;;;;;;16.52;10.30;;;;;;;19.89;41.29;102738.72;5073332;28;20499;-79
2022/04/27 07:33:49;;;;;;;15.07;8.35;;;;;;;20.02;41.00;102745.22;5074950;28;20036;-75
2022/04/27 07:36:15;;;;;;;17.13;9.98;;;;;;;20.06;40.58;102742.59;5074300;28;20024;-76
2022/04/27 07:38:41;;;;;;;20.63;9.77;;;;;;;20.38;40.12;102747.59;5089405;28;20111;-77
2022/04/27 07:41:07;;;;;;;18.13;9.88;;;;;;;20.23;40.51;102743.38;5073662;28;20432;-76
2022/04/27 07:43:34;;;;;;;25.40;11.25;;;;;;;20.14;40.50;102750.91;5073625;28;20509;-77
2022/04/27 07:46:00;;;;;;;27.58;11.82;;;;;;;20.17;40.61;102758.56;5073869;28;20028;-93
2022/04/27 07:48:32;;;;;;;19.33;9.88;;;;;;;20.08;40.59;102760.56;5072926;28;20056;-76
2022/04/27 07:50:59;;;;;;;23.15;10.23;;;;;;;20.43;40.15;102757.72;5072998;28;20093;-76
2022/04/27 07:53:25;;;;;;;19.85;9.05;;;;;;;20.16;40.95;102770.00;5073303;28;20020;-76
2022/04/27 07:55:50;;;;;;;22.17;10.30;;;;;;;20.35;40.29;102778.78;5073134;28;20387;-76
2022/04/27 07:58:16;;;;;;;15.98;10.18;;;;;;;20.26;40.25;102772.47;5073466;28;20037;-77
2022/04/27 08:00:41;;;;;;;14.88;9.63;;;;;;;20.53;39.83;102779.59;5073511;28;20027;-76
2022/04/27 08:03:07;;;;;;;16.85;9.07;;;;;;;20.48;39.88;102769.50;5073352;28;20047;-82
2022/04/27 08:05:33;;;;;;;14.85;9.82;;;;;;;20.68;39.83;102792.13;5074665;28;20028;-91
2022/04/27 08:07:58;;;;;;;23.13;12.38;;;;;;;20.66;39.84;102783.31;5074986;28;20059;-93
2022/04/27 08:10:24;;;;;;;18.90;10.52;;;;;;;20.59;39.79;102789.38;5073206;28;20385;-76
2022/04/27 08:12:49;;;;;;;16.83;11.07;;;;;;;20.63;39.43;102775.63;5073392;28;20032;-92
2022/04/27 08:15:20;;;;;;;28.08;10.10;;;;;;;20.60;39.42;102779.88;5073992;28;20020;-91
2022/04/27 08:17:59;;;;;;;19.27;9.70;;;;;;;20.78;39.20;102788.97;5073140;28;20020;-91
2022/04/27 08:23:32;;;;;;;15.93;11.10;;;;;;;20.92;39.00;102791.50;5073033;28;20134;-75
2022/04/27 08:25:59;;;;;;;26.25;9.48;;;;;;;20.78;39.09;102794.50;5072854;28;20020;-76
2022/04/27 08:28:25;;;;;;;18.23;10.57;;;;;;;20.75;39.14;102784.91;5073049;28;20025;-77
2022/04/27 08:30:51;;;;;;;14.57;9.85;;;;;;;20.61;39.13;102791.81;5065691;28;20069;-76
2022/04/27 08:33:18;;;;;;;16.20;8.75;;;;;;;20.63;39.34;102795.06;5072888;28;20025;-75
2022/04/27 08:35:44;;;;;;;19.65;10.57;;;;;;;21.03;38.73;102798.34;5067147;28;20021;-76
2022/04/27 08:38:11;;;;;;;12.32;9.18;;;;;;;21.05;38.75;102799.63;5065139;28;20467;-75
2022/04/27 08:40:39;;;;;;;21.75;10.80;;;;;;;21.18;38.57;102794.19;5065407;28;20024;-75
2022/04/27 08:43:05;;;;;;;18.75;8.23;;;;;;;21.35;38.36;102796.88;5069325;28;20024;-76
2022/04/27 08:45:31;;;;;;;19.40;9.57;;;;;;;21.31;38.21;102804.25;5069014;28;20505;-76
2022/04/27 08:47:57;;;;;;;19.70;9.73;;;;;;;21.39;38.21;102803.41;5071861;28;20020;-77
2022/04/27 08:50:25;;;;;;;19.80;11.50;;;;;;;21.56;37.96;102816.38;5072379;28;20036;-77
2022/04/27 08:52:51;;;;;;;15.00;9.30;;;;;;;21.40;38.16;102818.94;5072494;28;20025;-76
2022/04/27 08:55:21;;;;;;;17.73;8.25;;;;;;;21.45;37.82;102827.06;5072330;28;20028;-80
2022/04/27 08:57:48;;;;;;;22.25;9.98;;;;;;;21.81;37.28;102817.31;5072490;28;20027;-77
2022/04/27 09:00:18;;;;;;;16.75;9.25;;;;;;;21.55;37.57;102821.13;5072113;28;20551;-79
2022/04/27 09:02:44;;;;;;;13.40;8.15;;;;;;;21.41;37.51;102825.31;5072623;28;20218;-76
2022/04/27 09:05:13;;;;;;;19.40;8.70;;;;;;;21.24;37.44;102820.66;5072380;28;20139;-78
2022/04/27 09:07:46;;;;;;;18.73;7.75;;;;;;;21.13;37.46;102816.59;5072124;28;20486;-89
2022/04/27 09:10:15;;;;;;;15.40;6.93;;;;;;;21.12;37.60;102826.09;5072757;28;20032;-83
2022/04/27 09:12:58;;;;;;;13.90;6.90;;;;;;;21.19;37.69;102821.63;5072947;28;20424;-78
2022/04/27 09:15:27;;;;;;;17.95;7.72;;;;;;;21.42;37.40;102827.75;5071976;28;20034;-76
2022/04/27 09:20:52;;;;;;;19.98;8.63;;;;;;;21.25;37.55;102831.41;5072467;28;20042;-77
2022/04/27 09:23:37;;;;;;;14.50;6.90;;;;;;;21.35;37.12;102835.81;5071793;28;20097;-76
2022/04/27 09:26:19;;;;;;;16.08;6.30;;;;;;;21.51;36.59;102834.06;5070770;28;20486;-82
2022/04/27 09:28:49;;;;;;;11.55;6.07;;;;;;;21.48;36.85;102840.31;5070094;28;20111;-76
2022/04/27 09:31:37;;;;;;;13.15;6.65;;;;;;;21.11;37.10;102833.63;5071071;28;20391;-76
2022/04/27 09:36:53;;;;;;;21.60;7.97;;;;;;;21.17;37.25;102846.19;5072146;28;20493;-76
2022/04/27 09:39:25;;;;;;;13.40;6.78;;;;;;;21.33;37.09;102843.69;5071880;28;20420;-76
2022/04/27 09:41:51;;;;;;;24.77;7.65;;;;;;;21.50;36.93;102846.34;5069498;28;20027;-76
2022/04/27 09:44:30;;;;;;;16.85;6.53;;;;;;;21.27;37.16;102848.59;5070941;28;20033;-77
2022/04/27 09:46:57;;;;;;;25.52;8.68;;;;;;;21.55;36.54;102846.16;5072155;28;20032;-76
2022/04/27 09:49:23;;;;;;;14.88;6.55;;;;;;;21.64;36.76;102842.50;5071557;28;20040;-76
2022/04/27 09:51:51;;;;;;;12.10;7.38;;;;;;;21.60;36.60;102856.25;5070686;28;20536;-75
2022/04/27 09:54:25;;;;;;;12.40;6.93;;;;;;;21.46;36.77;102848.19;5065708;28;20025;-76
2022/04/27 09:56:54;;;;;;;11.38;5.85;;;;;;;21.32;36.91;102847.59;5066903;28;20021;-76
2022/04/27 09:59:27;;;;;;;17.27;7.40;;;;;;;21.43;36.81;102842.47;5068016;28;20056;-76
2022/04/27 10:01:58;;;;;;;14.25;7.40;;;;;;;21.37;36.84;102841.84;5071694;28;20029;-76
2022/04/27 10:04:29;;;;;;;10.63;5.63;;;;;;;21.64;36.96;102845.28;5071760;28;20059;-77
2022/04/27 10:07:00;;;;;;;14.88;7.43;;;;;;;21.59;36.74;102849.06;5071494;28;20029;-76
2022/04/27 10:09:29;;;;;;;13.10;6.18;;;;;;;21.70;37.15;102849.50;5071532;28;20099;-77
2022/04/27 10:11:57;;;;;;;13.65;6.03;;;;;;;21.89;36.92;102845.06;5071368;28;20066;-84
2022/04/27 10:14:22;;;;;;;11.13;6.20;;;;;;;21.78;36.45;102837.50;5075032;28;20032;-77
2022/04/27 10:16:52;;;;;;;19.75;7.22;;;;;;;21.56;36.50;102845.00;5074902;28;20028;-77
2022/04/27 10:19:18;;;;;;;13.82;7.88;;;;;;;21.95;36.29;102848.47;5075011;28;20024;-90
2022/04/27 10:21:57;;;;;;;13.80;6.15;;;;;;;21.96;36.31;102852.06;5075185;28;20052;-77
2022/04/27 10:24:37;;;;;;;16.30;6.60;;;;;;;21.91;36.23;102843.91;5072690;28;20410;-83
2022/04/27 10:27:22;;;;;;;18.17;7.28;;;;;;;21.60;37.04;102851.50;5075057;28;20452;-82
2022/04/27 10:29:51;;;;;;;20.52;7.70;;;;;;;21.90;36.67;102854.25;5074597;28;20063;-82
2022/04/27 10:32:48;;;;;;;9.98;5.82;;;;;;;21.47;37.05;102857.34;5074814;28;20111;-76
2022/04/27 10:35:16;;;;;;;16.40;6.45;;;;;;;21.69;36.49;102864.53;5075009;28;20032;-79
2022/04/27 10:37:57;;;;;;;12.93;6.32;;;;;;;21.27;37.22;102864.44;5074697;28;20028;-81
2022/04/27 10:40:40;;;;;;;18.77;7.88;;;;;;;21.29;37.33;102865.75;5067703;28;20060;-86
2022/04/27 10:43:06;;;;;;;16.52;6.88;;;;;;;21.43;37.18;102859.16;5072625;28;20070;-84
2022/04/27 10:45:33;;;;;;;13.25;6.97;;;;;;;21.23;37.47;102863.47;5073992;28;20482;-74
2022/04/27 10:47:59;;;;;;;10.10;5.93;;;;;;;21.11;37.33;102863.38;5074092;28;20103;-74
2022/04/27 10:50:29;;;;;;;11.40;6.53;;;;;;;21.13;37.05;102864.66;5074055;28;20431;-73
2022/04/27 10:52:57;;;;;;;14.60;6.80;;;;;;;21.12;37.02;102865.00;5074625;28;20032;-74
2022/04/27 10:55:34;;;;;;;21.20;8.65;;;;;;;21.10;37.30;102872.88;5073994;28;20089;-74
2022/04/27 10:58:22;;;;;;;16.42;6.18;;;;;;;21.12;37.26;102876.94;5074082;28;20024;-74
2022/04/27 11:01:02;;;;;;;12.85;6.65;;;;;;;20.97;37.65;102875.53;5072896;28;20032;-74
2022/04/27 11:03:31;;;;;;;14.43;6.75;;;;;;;21.03;37.52;102881.72;5074005;28;20036;-74
2022/04/27 11:06:05;;;;;;;11.48;6.63;;;;;;;20.88;37.76;102888.63;5069210;28;20505;-74
2022/04/27 11:09:04;;;;;;;12.60;6.70;;;;;;;21.00;37.31;102888.75;5074158;28;20040;-73
2022/04/27 11:11:31;;;;;;;13.23;6.10;;;;;;;20.96;37.22;102887.78;5072819;28;20104;-74
2022/04/27 11:14:06;;;;;;;14.48;6.80;;;;;;;21.08;36.95;102867.63;5073847;28;20375;-74
2022/04/27 11:16:49;;;;;;;13.30;6.72;;;;;;;21.25;36.79;102881.47;5074115;28;20032;-77
2022/04/27 11:19:15;;;;;;;12.15;6.35;;;;;;;21.34;36.80;102878.66;5072683;28;20570;-77
2022/04/27 11:21:41;;;;;;;10.35;5.72;;;;;;;21.47;36.75;102880.41;5074535;28;20031;-75
2022/04/27 11:24:07;;;;;;;11.95;6.00;;;;;;;21.67;36.69;102886.31;5073812;28;20108;-77
2022/04/27 11:26:46;;;;;;;12.60;6.22;;;;;;;21.55;36.89;102887.88;5073409;28;20037;-75
2022/04/27 11:29:13;;;;;;;12.98;6.03;;;;;;;21.76;36.35;102889.84;5074858;28;20557;-74
2022/04/27 11:31:43;;;;;;;10.93;6.20;;;;;;;21.96;36.16;102885.47;5074784;28;20379;-77
2022/04/27 11:34:26;;;;;;;14.50;6.00;;;;;;;21.63;36.24;102886.19;5074411;28;20024;-80
2022/04/27 11:36:54;;;;;;;13.55;6.50;;;;;;;21.80;36.23;102888.84;5074841;28;20032;-74
2022/04/27 11:39:24;;;;;;;26.08;6.80;;;;;;;21.56;36.32;102878.38;5073299;28;20108;-84
2022/04/27 11:42:03;;;;;;;11.63;5.10;;;;;;;21.35;36.31;102885.03;5072906;28;20020;-88